createdAt,value
2023-03-21T00:00:05.929Z,10.11
2023-03-21T00:02:33.800Z,10.05
2023-03-21T00:05:13.400Z,10.07
2023-03-21T00:07:44.731Z,10.05
2023-03-21T00:10:18.125Z,9.97
2023-03-21T00:12:58.416Z,10.07
2023-03-21T00:15:39.961Z,9.97
2023-03-21T00:18:12.076Z,9.99
2023-03-21T00:20:39.780Z,9.97
2023-03-21T00:23:09.096Z,9.94
2023-03-21T00:25:37.233Z,9.95
2023-03-21T00:28:08.534Z,10.16
2023-03-21T00:30:36.694Z,9.99
2023-03-21T00:33:15.860Z,10.04
2023-03-21T00:36:01.766Z,10.03
2023-03-21T00:38:36.856Z,10.12
2023-03-21T00:41:18.901Z,10.06
2023-03-21T00:43:55.433Z,9.95
2023-03-21T00:46:27.530Z,9.91
2023-03-21T00:48:57.779Z,9.97
2023-03-21T00:51:27.204Z,10.06
2023-03-21T00:53:58.398Z,10.29
2023-03-21T00:56:29.186Z,10.50
2023-03-21T00:58:56.898Z,10.22
2023-03-21T01:01:26.475Z,10.39
2023-03-21T01:04:03.462Z,10.37
2023-03-21T01:06:32.957Z,10.17
2023-03-21T01:09:02.304Z,10.24
2023-03-21T01:11:30.151Z,10.11
2023-03-21T01:14:14.696Z,10.31
2023-03-21T01:16:46.785Z,10.38
2023-03-21T01:19:25.135Z,10.37
2023-03-21T01:21:54.293Z,10.31
2023-03-21T01:24:24.058Z,10.27
2023-03-21T01:26:52.079Z,10.04
2023-03-21T01:29:19.978Z,10.05
2023-03-21T01:31:48.184Z,10.12
2023-03-21T01:34:16.504Z,10.15
2023-03-21T01:36:44.792Z,10.06
2023-03-21T01:39:17.543Z,10.32
2023-03-21T01:41:49.524Z,10.25
2023-03-21T01:44:23.339Z,10.09
2023-03-21T01:47:07.643Z,10.23
2023-03-21T01:49:50.653Z,10.11
2023-03-21T01:52:36.004Z,10.15
2023-03-21T01:55:11.980Z,10.01
2023-03-21T01:58:04.894Z,10.10
2023-03-21T02:00:54.001Z,10.00
2023-03-21T02:03:50.856Z,10.01
2023-03-21T02:06:31.796Z,10.15
2023-03-21T02:09:10.900Z,10.22
2023-03-21T02:11:39.439Z,10.15
2023-03-21T02:14:26.693Z,10.06
2023-03-21T02:17:08.866Z,9.98
2023-03-21T02:20:26.539Z,10.22
2023-03-21T02:23:25.389Z,10.07
2023-03-21T02:26:33.355Z,10.02
2023-03-21T02:29:31.771Z,10.04
2023-03-21T02:32:17.871Z,10.00
2023-03-21T02:35:26.042Z,9.99
2023-03-21T02:38:01.420Z,9.95
2023-03-21T02:40:36.673Z,9.95
2023-03-21T02:43:20.795Z,9.92
2023-03-21T02:45:54.967Z,9.83
2023-03-21T02:48:35.347Z,9.86
2023-03-21T02:51:11.908Z,9.93
2023-03-21T02:53:50.588Z,9.91
2023-03-21T02:56:23.171Z,9.88
2023-03-21T02:58:55.661Z,9.87
2023-03-21T03:01:26.117Z,9.87
2023-03-21T03:03:54.336Z,9.87
2023-03-21T03:06:27.676Z,9.90
2023-03-21T03:09:18.980Z,9.83
2023-03-21T03:11:51.980Z,9.87
2023-03-21T03:14:49.895Z,9.83
2023-03-21T03:17:30.389Z,9.86
2023-03-21T03:20:20.308Z,9.84
2023-03-21T03:22:58.285Z,9.65
2023-03-21T03:25:42.391Z,9.62
2023-03-21T03:28:17.894Z,9.80
2023-03-21T03:31:01.138Z,9.67
2023-03-21T03:33:41.458Z,9.63
2023-03-21T03:36:18.803Z,9.65
2023-03-21T03:38:53.240Z,9.75
2023-03-21T03:41:26.960Z,9.69
2023-03-21T03:44:02.434Z,9.65
2023-03-21T03:46:41.239Z,9.75
2023-03-21T03:49:13.122Z,9.76
2023-03-21T03:51:49.851Z,9.71
2023-03-21T03:54:30.764Z,9.71
2023-03-21T03:57:01.337Z,9.76
2023-03-21T03:59:29.411Z,9.74
2023-03-21T04:02:13.238Z,9.74
2023-03-21T04:04:41.983Z,9.70
2023-03-21T04:07:10.485Z,9.71
2023-03-21T04:09:44.585Z,9.76
2023-03-21T04:12:16.733Z,9.70
2023-03-21T04:15:09.567Z,9.69
2023-03-21T04:17:40.524Z,9.87
2023-03-21T04:20:14.983Z,9.80
2023-03-21T04:22:46.642Z,9.82
2023-03-21T04:25:27.395Z,9.75
2023-03-21T04:28:02.342Z,9.72
2023-03-21T04:30:39.875Z,9.75
2023-03-21T04:33:14.200Z,9.73
2023-03-21T04:35:50.492Z,9.70
2023-03-21T04:38:19.504Z,9.76
2023-03-21T04:40:47.218Z,9.80
2023-03-21T04:43:16.646Z,9.72
2023-03-21T04:45:44.515Z,9.78
2023-03-21T04:48:14.305Z,9.76
2023-03-21T04:50:42.221Z,9.87
2023-03-21T04:53:10.993Z,9.94
2023-03-21T04:55:39.175Z,9.94
2023-03-21T04:58:07.615Z,9.97
2023-03-21T05:00:38.463Z,9.86
2023-03-21T05:03:09.011Z,9.65
2023-03-21T05:05:38.577Z,9.57
2023-03-21T05:08:07.374Z,9.57
2023-03-21T05:10:35.141Z,9.68
2023-03-21T05:13:03.551Z,9.70
2023-03-21T05:15:31.503Z,9.52
2023-03-21T05:18:11.592Z,9.66
2023-03-21T05:20:55.352Z,9.60
2023-03-21T05:23:25.481Z,9.54
2023-03-21T05:25:53.324Z,9.59
2023-03-21T05:28:36.891Z,9.63
2023-03-21T05:31:05.902Z,9.55
2023-03-21T05:33:35.578Z,9.57
2023-03-21T05:36:03.408Z,9.51
2023-03-21T05:38:33.330Z,9.39
2023-03-21T05:41:01.442Z,9.32
2023-03-21T05:43:31.160Z,9.45
2023-03-21T05:46:00.859Z,9.48
2023-03-21T05:48:31.416Z,9.45
2023-03-21T05:51:14.689Z,9.47
2023-03-21T05:53:42.843Z,9.50
2023-03-21T05:56:11.817Z,9.50
2023-03-21T05:58:46.502Z,9.45
2023-03-21T06:01:14.781Z,9.44
2023-03-21T06:03:48.875Z,9.46
2023-03-21T06:06:20.286Z,9.36
2023-03-21T06:08:54.521Z,9.45
2023-03-21T06:11:27.339Z,9.43
2023-03-21T06:14:16.294Z,9.39
2023-03-21T06:16:45.698Z,9.33
2023-03-21T06:19:14.155Z,9.32
2023-03-21T06:22:03.712Z,9.47
2023-03-21T06:24:32.927Z,9.43
2023-03-21T06:27:03.508Z,9.45
2023-03-21T06:29:41.515Z,9.43
2023-03-21T06:32:09.306Z,9.29
2023-03-21T06:34:39.378Z,9.49
2023-03-21T06:37:09.029Z,9.42
2023-03-21T06:39:38.042Z,9.45
2023-03-21T06:42:06.160Z,9.45
2023-03-21T06:44:34.015Z,9.38
2023-03-21T06:47:06.983Z,9.49
2023-03-21T06:49:35.445Z,9.63
2023-03-21T06:52:10.346Z,9.65
2023-03-21T06:54:39.133Z,9.60
2023-03-21T06:57:13.532Z,9.73
2023-03-21T06:59:42.619Z,9.77
2023-03-21T07:02:15.131Z,9.84
2023-03-21T07:04:49.280Z,9.82
2023-03-21T07:07:26.013Z,9.83
2023-03-21T07:09:53.932Z,9.94
2023-03-21T07:12:23.060Z,9.83
2023-03-21T07:15:11.041Z,9.88
2023-03-21T07:17:40.719Z,9.75
2023-03-21T07:20:09.172Z,9.85
2023-03-21T07:22:38.527Z,9.82
2023-03-21T07:25:07.728Z,9.75
2023-03-21T07:27:42.144Z,9.91
2023-03-21T07:30:12.136Z,10.05
2023-03-21T07:32:40.534Z,10.50
2023-03-21T07:35:11.765Z,10.38
2023-03-21T07:37:41.602Z,10.25
2023-03-21T07:40:13.255Z,10.24
2023-03-21T07:42:42.345Z,10.17
2023-03-21T07:45:16.627Z,10.32
2023-03-21T07:47:47.063Z,10.37
2023-03-21T07:50:15.944Z,10.56
2023-03-21T07:52:45.392Z,10.42
2023-03-21T07:55:13.419Z,10.56
2023-03-21T07:57:41.613Z,10.33
2023-03-21T08:00:10.821Z,10.42
2023-03-21T08:02:43.211Z,10.57
2023-03-21T08:05:12.048Z,10.54
2023-03-21T08:07:40.122Z,10.42
2023-03-21T08:10:11.875Z,10.50
2023-03-21T08:12:39.753Z,10.50
2023-03-21T08:15:08.893Z,10.55
2023-03-21T08:17:38.123Z,10.68
2023-03-21T08:20:09.100Z,10.69
2023-03-21T08:22:37.696Z,10.46
2023-03-21T08:25:08.565Z,10.49
2023-03-21T08:27:38.012Z,10.67
2023-03-21T08:30:06.647Z,10.68
2023-03-21T08:32:34.803Z,10.59
2023-03-21T08:35:04.150Z,10.51
2023-03-21T08:37:31.956Z,10.58
2023-03-21T08:40:00.103Z,10.46
2023-03-21T08:42:27.961Z,10.64
2023-03-21T08:44:57.147Z,10.56
2023-03-21T08:47:24.888Z,10.62
2023-03-21T08:49:52.793Z,10.66
2023-03-21T08:52:20.933Z,10.75
2023-03-21T08:54:48.763Z,10.45
2023-03-21T08:57:16.965Z,10.40
2023-03-21T08:59:44.808Z,10.34
2023-03-21T09:02:15.026Z,10.35
2023-03-21T09:04:43.926Z,10.27
2023-03-21T09:07:14.285Z,10.24
2023-03-21T09:09:42.783Z,10.27
2023-03-21T09:12:10.957Z,10.26
2023-03-21T09:14:38.708Z,10.12
2023-03-21T09:17:06.704Z,10.06
2023-03-21T09:19:35.971Z,10.34
2023-03-21T09:22:03.749Z,10.22
2023-03-21T09:24:31.734Z,10.26
2023-03-21T09:26:59.544Z,10.30
2023-03-21T09:29:27.596Z,10.32
2023-03-21T09:31:55.416Z,10.26
2023-03-21T09:34:23.537Z,10.32
2023-03-21T09:36:56.519Z,10.42
2023-03-21T09:39:24.728Z,10.45
2023-03-21T09:42:06.424Z,10.51
2023-03-21T09:44:52.803Z,10.52
2023-03-21T09:47:25.151Z,10.63
2023-03-21T09:50:13.099Z,10.68
2023-03-21T09:52:49.603Z,10.70
2023-03-21T09:55:21.342Z,10.67
2023-03-21T09:57:53.034Z,10.77
2023-03-21T10:00:29.584Z,10.55
2023-03-21T10:03:01.679Z,10.52
2023-03-21T10:05:32.641Z,10.49
2023-03-21T10:08:05.575Z,10.63
2023-03-21T10:10:36.251Z,10.64
2023-03-21T10:13:11.592Z,10.88
2023-03-21T10:15:39.662Z,10.92
2023-03-21T10:18:09.477Z,10.75
2023-03-21T10:20:40.124Z,10.89
2023-03-21T10:23:14.381Z,10.71
2023-03-21T10:25:44.254Z,10.75
2023-03-21T10:28:17.512Z,10.61
2023-03-21T10:30:47.524Z,10.71
2023-03-21T10:33:17.741Z,10.72
2023-03-21T10:35:50.623Z,10.53
2023-03-21T10:38:22.353Z,10.57
2023-03-21T10:40:50.223Z,10.63
2023-03-21T10:43:30.905Z,10.75
2023-03-21T10:45:59.067Z,10.80
2023-03-21T10:48:27.054Z,10.71
2023-03-21T10:50:56.367Z,10.84
2023-03-21T10:53:36.287Z,10.78
2023-03-21T10:56:07.797Z,10.75
2023-03-21T10:58:39.783Z,10.86
2023-03-21T11:01:14.875Z,10.90
2023-03-21T11:03:46.968Z,11.01
2023-03-21T11:06:23.875Z,11.18
2023-03-21T11:08:57.872Z,11.03
2023-03-21T11:11:28.546Z,10.98
2023-03-21T11:14:01.602Z,11.07
2023-03-21T11:16:37.566Z,11.24
2023-03-21T11:19:16.046Z,11.21
2023-03-21T11:21:44.572Z,11.34
2023-03-21T11:24:17.278Z,11.21
2023-03-21T11:26:48.224Z,11.18
2023-03-21T11:29:28.316Z,11.35
2023-03-21T11:32:02.265Z,11.38
2023-03-21T11:34:35.001Z,11.38
2023-03-21T11:37:04.268Z,11.45
2023-03-21T11:39:37.629Z,11.53
2023-03-21T11:42:06.804Z,11.63
2023-03-21T11:44:36.972Z,11.76
2023-03-21T11:47:04.932Z,11.89
2023-03-21T11:49:32.711Z,11.88
2023-03-21T11:52:16.311Z,11.99
2023-03-21T11:55:04.989Z,11.96
2023-03-21T11:57:45.190Z,12.01
2023-03-21T12:00:20.703Z,12.11
2023-03-21T12:03:05.610Z,11.99
2023-03-21T12:05:36.897Z,11.92
2023-03-21T12:08:19.645Z,11.86
2023-03-21T12:10:57.120Z,11.95
2023-03-21T12:13:38.868Z,11.94
2023-03-21T12:16:21.413Z,11.91
2023-03-21T12:19:05.982Z,11.90
2023-03-21T12:21:40.278Z,11.86
2023-03-21T12:24:15.954Z,11.81
2023-03-21T12:26:58.800Z,11.48
2023-03-21T12:29:37.785Z,11.39
2023-03-21T12:32:16.950Z,11.37
2023-03-21T12:35:03.597Z,11.38
2023-03-21T12:37:38.245Z,11.22
2023-03-21T12:40:14.526Z,11.29
2023-03-21T12:43:01.138Z,11.49
2023-03-21T12:45:45.725Z,11.18
2023-03-21T12:48:22.154Z,11.42
2023-03-21T12:50:52.396Z,11.46
2023-03-21T12:53:35.987Z,11.42
2023-03-21T12:56:08.627Z,11.49
2023-03-21T12:58:48.728Z,11.52
2023-03-21T13:01:19.085Z,11.47
2023-03-21T13:03:52.701Z,11.54
2023-03-21T13:06:25.517Z,11.38
2023-03-21T13:08:59.370Z,11.42
2023-03-21T13:11:31.460Z,11.54
2023-03-21T13:14:05.368Z,11.65
2023-03-21T13:16:39.033Z,11.75
2023-03-21T13:19:17.821Z,11.67
2023-03-21T13:21:52.924Z,11.83
2023-03-21T13:24:28.126Z,12.03
2023-03-21T13:27:06.805Z,11.83
2023-03-21T13:29:45.978Z,12.01
2023-03-21T13:32:22.497Z,11.93
2023-03-21T13:34:56.729Z,11.85
2023-03-21T13:37:28.074Z,11.72
2023-03-21T13:40:02.212Z,11.76
2023-03-21T13:42:33.689Z,12.07
2023-03-21T13:45:10.614Z,12.16
2023-03-21T13:47:43.994Z,12.16
2023-03-21T13:50:52.486Z,12.17
2023-03-21T13:53:32.001Z,12.18
2023-03-21T13:56:16.158Z,12.32
2023-03-21T13:58:53.611Z,12.25
2023-03-21T14:01:34.943Z,12.21
2023-03-21T14:04:12.534Z,12.26
2023-03-21T14:06:45.795Z,12.19
2023-03-21T14:09:21.669Z,12.19
2023-03-21T14:11:54.646Z,12.16
2023-03-21T14:14:27.950Z,12.23
2023-03-21T14:16:57.099Z,12.32
2023-03-21T14:19:30.955Z,12.41
2023-03-21T14:22:00.230Z,12.39
2023-03-21T14:24:28.035Z,12.49
2023-03-21T14:26:56.939Z,12.21
2023-03-21T14:29:27.807Z,12.49
2023-03-21T14:32:00.131Z,12.40
2023-03-21T14:34:29.629Z,12.34
2023-03-21T14:36:59.239Z,12.28
2023-03-21T14:39:29.505Z,12.25
2023-03-21T14:42:03.300Z,12.46
2023-03-21T14:44:44.131Z,12.53
2023-03-21T14:47:23.226Z,12.51
2023-03-21T14:49:52.246Z,12.55
2023-03-21T14:52:25.272Z,12.60
2023-03-21T14:54:54.304Z,12.64
2023-03-21T14:57:25.055Z,12.75
2023-03-21T14:59:56.107Z,12.67
2023-03-21T15:02:29.289Z,12.54
2023-03-21T15:04:59.495Z,12.60
2023-03-21T15:07:29.710Z,12.58
2023-03-21T15:10:00.918Z,12.71
2023-03-21T15:12:28.936Z,12.87
2023-03-21T15:14:57.485Z,12.69
2023-03-21T15:17:28.153Z,12.42
2023-03-21T15:19:56.182Z,12.59
2023-03-21T15:22:31.761Z,12.69
2023-03-21T15:25:02.438Z,12.81
2023-03-21T15:27:33.646Z,12.80
2023-03-21T15:30:01.590Z,12.66
2023-03-21T15:32:31.123Z,12.74
2023-03-21T15:35:07.455Z,12.83
2023-03-21T15:37:38.206Z,12.81
2023-03-21T15:40:20.952Z,13.02
2023-03-21T15:42:48.738Z,12.89
2023-03-21T15:45:22.358Z,12.81
2023-03-21T15:48:00.576Z,13.03
2023-03-21T15:50:35.015Z,13.13
2023-03-21T15:53:06.193Z,13.14
2023-03-21T15:55:40.236Z,12.83
2023-03-21T15:58:16.243Z,12.63
2023-03-21T16:00:48.849Z,12.59
2023-03-21T16:03:22.709Z,12.46
2023-03-21T16:06:10.854Z,12.66
2023-03-21T16:08:46.101Z,12.79
2023-03-21T16:11:18.624Z,12.94
2023-03-21T16:13:47.091Z,12.85
2023-03-21T16:16:18.074Z,12.64
2023-03-21T16:18:47.757Z,12.61
2023-03-21T16:21:17.295Z,12.51
2023-03-21T16:23:45.722Z,12.68
2023-03-21T16:26:16.436Z,12.73
2023-03-21T16:28:44.880Z,12.64
2023-03-21T16:31:16.428Z,12.79
2023-03-21T16:33:44.949Z,12.87
2023-03-21T16:36:17.889Z,12.74
2023-03-21T16:38:46.374Z,12.63
2023-03-21T16:41:15.782Z,12.57
2023-03-21T16:43:44.001Z,12.47
2023-03-21T16:46:14.618Z,12.52
2023-03-21T16:48:43.501Z,12.48
2023-03-21T16:51:15.330Z,12.55
2023-03-21T16:53:43.355Z,12.56
2023-03-21T16:56:16.179Z,12.64
2023-03-21T16:58:44.855Z,12.45
2023-03-21T17:01:15.639Z,12.57
2023-03-21T17:03:43.932Z,12.64
2023-03-21T17:06:17.112Z,12.43
2023-03-21T17:08:45.434Z,12.40
2023-03-21T17:11:16.449Z,12.51
2023-03-21T17:13:44.723Z,12.48
2023-03-21T17:16:13.475Z,12.35
2023-03-21T17:18:41.858Z,12.36
2023-03-21T17:21:14.442Z,12.37
2023-03-21T17:23:44.156Z,12.33
2023-03-21T17:26:14.355Z,12.38
2023-03-21T17:28:42.478Z,12.30
2023-03-21T17:31:14.725Z,12.45
2023-03-21T17:33:42.895Z,12.30
2023-03-21T17:36:14.975Z,12.45
2023-03-21T17:38:45.837Z,12.30
2023-03-21T17:41:15.483Z,12.21
2023-03-21T17:43:43.457Z,12.31
2023-03-21T17:46:14.241Z,12.23
2023-03-21T17:48:42.378Z,12.25
2023-03-21T17:51:13.039Z,12.22
2023-03-21T17:53:41.032Z,12.21
2023-03-21T17:56:15.288Z,12.35
2023-03-21T17:58:43.184Z,12.42
2023-03-21T18:01:10.967Z,12.33
2023-03-21T18:03:38.829Z,12.17
2023-03-21T18:06:07.662Z,12.25
2023-03-21T18:08:35.985Z,12.17
2023-03-21T18:11:03.914Z,12.35
2023-03-21T18:13:33.100Z,12.05
2023-03-21T18:16:00.957Z,11.95
2023-03-21T18:18:28.891Z,11.92
2023-03-21T18:20:58.499Z,11.86
2023-03-21T18:23:26.798Z,11.83
2023-03-21T18:25:54.913Z,11.90
2023-03-21T18:28:22.947Z,11.90
2023-03-21T18:31:14.259Z,11.85
2023-03-21T18:33:42.046Z,11.98
2023-03-21T18:36:13.884Z,11.92
2023-03-21T18:38:42.283Z,11.93
2023-03-21T18:41:10.811Z,11.98
2023-03-21T18:46:30.436Z,12.13
2023-03-21T18:48:58.356Z,12.08
2023-03-21T18:51:26.324Z,12.01
2023-03-21T18:53:54.612Z,12.00
2023-03-21T18:57:13.184Z,11.99
2023-03-21T18:59:10.302Z,12.02
2023-03-21T19:01:39.621Z,11.94
2023-03-21T19:04:29.795Z,12.04
2023-03-21T19:06:55.490Z,11.95
2023-03-21T19:09:29.565Z,12.03
2023-03-21T19:11:59.688Z,12.02
2023-03-21T19:14:28.338Z,11.99
2023-03-21T19:17:53.456Z,12.04
2023-03-21T19:19:47.828Z,12.04
2023-03-21T19:22:15.924Z,11.98
2023-03-21T19:24:43.701Z,11.96
2023-03-21T19:27:13.283Z,12.01
2023-03-21T19:29:41.358Z,11.90
2023-03-21T19:32:10.655Z,11.94
2023-03-21T19:34:38.934Z,11.89
2023-03-21T19:37:07.074Z,11.93
2023-03-21T19:39:35.027Z,12.08
2023-03-21T19:42:16.027Z,11.89
2023-03-21T19:44:45.719Z,11.88
2023-03-21T19:47:15.137Z,11.81
2023-03-21T19:50:30.737Z,11.90
2023-03-21T19:52:31.840Z,11.77
2023-03-21T19:54:59.949Z,11.76
2023-03-21T19:57:27.892Z,11.67
2023-03-21T19:59:55.636Z,11.72
2023-03-21T20:02:35.618Z,11.71
2023-03-21T20:05:04.748Z,11.61
2023-03-21T20:07:32.970Z,11.60
2023-03-21T20:10:01.463Z,11.54
2023-03-21T20:12:29.784Z,11.49
2023-03-21T20:15:09.580Z,11.40
2023-03-21T20:17:41.372Z,11.30
2023-03-21T20:20:15.378Z,11.26
2023-03-21T20:23:05.817Z,11.24
2023-03-21T20:25:33.217Z,11.18
2023-03-21T20:28:15.264Z,11.13
2023-03-21T20:30:49.340Z,11.04
2023-03-21T20:33:18.696Z,11.01
2023-03-21T20:36:32.247Z,11.10
2023-03-21T20:38:35.744Z,10.98
2023-03-21T20:41:05.465Z,10.98
2023-03-21T20:46:21.313Z,10.89
2023-03-21T20:48:50.646Z,10.98
2023-03-21T20:52:18.579Z,11.08
2023-03-21T20:54:06.699Z,10.99
2023-03-21T20:56:34.836Z,10.94
2023-03-21T20:59:17.289Z,10.83
2023-03-21T21:01:45.585Z,10.78
2023-03-21T21:04:19.806Z,10.76
2023-03-21T21:06:48.061Z,10.83
2023-03-21T21:09:15.972Z,10.82
2023-03-21T21:14:32.036Z,10.73
2023-03-21T21:17:04.931Z,10.83
2023-03-21T21:19:43.470Z,10.86
2023-03-21T21:22:11.212Z,10.95
2023-03-21T21:24:39.200Z,10.78
2023-03-21T21:27:07.002Z,10.62
2023-03-21T21:29:34.810Z,10.67
2023-03-21T21:32:05.182Z,10.73
2023-03-21T21:34:33.431Z,10.78
2023-03-21T21:37:03.071Z,10.78
2023-03-21T21:39:31.513Z,10.64
2023-03-21T21:41:59.288Z,10.68
2023-03-21T21:44:27.403Z,10.75
2023-03-21T21:46:55.334Z,10.81
2023-03-21T21:49:23.171Z,10.69
2023-03-21T21:51:50.962Z,10.64
2023-03-21T21:54:20.100Z,10.67
2023-03-21T21:56:48.671Z,10.62
2023-03-21T21:59:17.181Z,10.62
2023-03-21T22:01:46.616Z,10.69
2023-03-21T22:04:15.376Z,10.71
2023-03-21T22:06:44.018Z,10.75
2023-03-21T22:09:12.105Z,10.86
2023-03-21T22:11:41.785Z,10.97
2023-03-21T22:14:09.607Z,11.01
2023-03-21T22:16:37.590Z,11.04
2023-03-21T22:19:05.405Z,11.03
2023-03-21T22:21:33.266Z,11.05
2023-03-21T22:24:01.401Z,11.02
2023-03-21T22:26:29.467Z,11.07
2023-03-21T22:28:59.945Z,11.28
2023-03-21T22:31:27.813Z,11.48
2023-03-21T22:33:55.999Z,11.42
2023-03-21T22:36:23.807Z,11.38
2023-03-21T22:38:51.590Z,11.28
2023-03-21T22:41:19.325Z,11.35
2023-03-21T22:43:47.471Z,11.33
2023-03-21T22:46:16.853Z,11.20
2023-03-21T22:48:44.672Z,11.29
2023-03-21T22:51:12.898Z,11.49
2023-03-21T22:53:40.893Z,11.42
2023-03-21T22:56:10.105Z,11.45
2023-03-21T22:58:37.838Z,11.52
2023-03-21T23:01:06.194Z,11.46
2023-03-21T23:03:35.414Z,11.37
2023-03-21T23:06:03.614Z,11.26
2023-03-21T23:08:31.798Z,11.42
2023-03-21T23:10:59.578Z,11.32
2023-03-21T23:13:27.970Z,11.22
2023-03-21T23:15:56.231Z,11.30
2023-03-21T23:18:24.025Z,11.11
2023-03-21T23:20:53.589Z,11.27
2023-03-21T23:23:21.546Z,11.17
2023-03-21T23:25:49.412Z,11.32
2023-03-21T23:28:17.179Z,11.25
2023-03-21T23:30:44.981Z,11.29
2023-03-21T23:33:12.797Z,11.37
2023-03-21T23:35:40.844Z,11.39
2023-03-21T23:38:10.068Z,11.34
2023-03-21T23:40:39.861Z,11.33
2023-03-21T23:43:07.823Z,11.46
2023-03-21T23:45:35.582Z,11.37
2023-03-21T23:48:03.857Z,11.42
2023-03-21T23:50:31.921Z,11.34
2023-03-21T23:52:59.698Z,11.54
2023-03-21T23:55:28.935Z,11.38
2023-03-21T23:57:58.969Z,11.28
